Crowley Lake, CA

3:40 AM PST on December 09, 2016 (GMT -0800)
Sierra Springs | | Change Station
Active Advisory: Wind Advisory Active Notice: Local Storm Report

Elev 6886 ft 37.57 °N, 118.74 °W | Updated 20 seconds ago

Clear
Clear
32.4 °F
Feels Like 32 °F
N
2.0
Wind Variable Wind from SE

Today
High -- | Low -- °F
--% Chance of Precip.
Yesterday
High -- | Low -- °F
Precip. -- in
Pressure 30.25 in
Visibility 10.0 miles
Clouds Clear
Windchill 32 °F
Dew Point 25 °F
Humidity 75%
Rainfall 0.00 in
Snow Depth Not available.
6:58 AM 4:36 PM
Waxing Gibbous, 73% visible
METAR KMMH 091135Z AUTO 09004KT 10SM CLR 02/M02 A3025 RMK AO2 T00231017
Pressure 30.25 in
Visibility 10.0 miles
Clouds Clear
Windchill 32 °F
Dew Point 25 °F
Humidity 75%
Rainfall 0.00 in
Snow Depth Not available.
6:58 AM 4:36 PM
Waxing Gibbous, 73% visible
METAR KMMH 091135Z AUTO 09004KT 10SM CLR 02/M02 A3025 RMK AO2 T00231017

10-Day Weather Forecast

Almanac

Astronomy

Dec. 09, 2016 Rise Set
Actual Time
Civil Twilight
Nautical Twilight
Astronomical Twilight
Moon
Length of Visible Light
Length of Day
Tomorrow will be .
, % of the Moon is Illuminated

Today's Extremes

State Highs State Lows

Community

WunderPhotos

Upload Photos

1,956,383 photos uploaded!

WunderBlog® & News

Nearby

Air Quality

  Air Quality AQ Index Pollutant
Not available.

Snow Depth

Station Depth Elevation

Earthquake Activity

City Distance Mag. Time & Date
Minimum magnitude displayed is 2.5.

Coastal Water Temperatures

Place Temperature

Stations

Nearby Weather Stations

Station Location Temp. Windchill Dew Point Humidity Wind Precip. Elev Updated Type
                   

Watches & Warnings

Wind Advisory
Issued: 3:04 AM PST Dec. 9, 2016 – National Weather Service

... Wind Advisory in effect from 1 PM this afternoon to 1 am PST
Saturday...

The National Weather Service in Reno has issued a Wind Advisory,
which is in effect from 1 PM this afternoon to 1 am PST Saturday.

* Timing: winds will increase through the day becoming strong and
gusty this afternoon and overnight.

* Winds: south to southwest 15 to 30 mph with gusts 50 to 60 mph.
Wind prone locations may see gusts up to 70 mph.

* Impacts: winds may cause travel difficulties especially for high
profile vehicles with the worst conditions expected along the
Highway 395 corridor. Winds will also cause turbulence and wind
shear for aviation.


Precautionary/preparedness actions...

Now is the time to secure loose outdoor items such as patio
furniture, Holiday decorations, and trash cans before winds
increase which could blow these items away. The best thing to do
is prepare ahead of time by making sure you have extra food and
water on hand, flashlights with spare batteries and/or candles in
the event of a power outage.



Http://weather.Gov/Reno